Time;durP1;ratioP1;P1;durP2;ratioP2;P2;SDS_P1;SDS_P2;PMS_P1;PMS_P2;Temp;Humidity;BMP_temperature;BMP_pressure;BME280_temperature;BME280_humidity;BME280_pressure;Samples;Min_cycle;Max_cycle;Signal;HPM_P1;HPM_P2
2024/03/21 00:01:13;;;;;;;8.90;8.70;;;;;;;;;;5092576;28;20465;-73
2024/03/21 00:03:41;;;;;;;8.53;8.43;;;;;;;;;;5107460;28;20515;-73
2024/03/21 00:06:07;;;;;;;8.63;8.53;;;;;;;;;;5099770;28;20912;-73
2024/03/21 00:08:34;;;;;;;8.47;8.37;;;;;;;;;;5105410;28;20501;-73
2024/03/21 00:11:00;;;;;;;8.67;8.57;;;;;;;;;;5107831;28;20474;-75
2024/03/21 00:13:27;;;;;;;9.20;9.00;;;;;;;;;;5097270;28;20869;-73
2024/03/21 00:15:54;;;;;;;8.67;8.57;;;;;;;;;;5107594;28;20458;-73
2024/03/21 00:18:24;;;;;;;10.10;9.90;;;;;;;;;;5100618;28;20552;-75
2024/03/21 00:20:50;;;;;;;8.20;8.10;;;;;;;;;;5112265;28;20464;-73
2024/03/21 00:23:17;;;;;;;8.57;8.47;;;;;;;;;;5101903;28;20687;-73
2024/03/21 00:25:43;;;;;;;8.40;8.30;;;;;;;;;;5109732;28;20900;-72
2024/03/21 00:28:11;;;;;;;8.53;8.43;;;;;;;;;;5111980;28;21016;-73
2024/03/21 00:30:39;;;;;;;8.10;8.00;;;;;;;;;;5104633;28;20493;-73
2024/03/21 00:33:06;;;;;;;9.20;9.00;;;;;;;;;;5108640;28;20467;-73
2024/03/21 00:35:34;;;;;;;8.97;8.77;;;;;;;;;;5111939;28;20471;-74
2024/03/21 00:38:01;;;;;;;8.70;8.60;;;;;;;;;;5112544;28;20506;-74
2024/03/21 00:40:28;;;;;;;8.17;8.07;;;;;;;;;;5104272;28;20496;-72
2024/03/21 00:42:55;;;;;;;7.67;7.57;;;;;;;;;;5099523;28;20468;-72
2024/03/21 00:45:21;;;;;;;8.00;7.90;;;;;;;;;;5101584;28;20576;-74
2024/03/21 00:47:48;;;;;;;8.67;8.57;;;;;;;;;;5112307;28;20519;-72
2024/03/21 00:50:14;;;;;;;9.30;9.10;;;;;;;;;;5111412;28;20462;-74
2024/03/21 00:52:43;;;;;;;8.17;8.07;;;;;;;;;;5103682;28;20467;-72
2024/03/21 00:55:09;;;;;;;7.80;7.70;;;;;;;;;;5106375;27;20467;-73
2024/03/21 00:57:36;;;;;;;8.30;8.20;;;;;;;;;;5093775;28;20474;-72
2024/03/21 01:00:03;;;;;;;7.90;7.80;;;;;;;;;;5097978;28;20498;-73
2024/03/21 01:02:31;;;;;;;7.53;7.43;;;;;;;;;;5111537;28;20494;-72
2024/03/21 01:04:58;;;;;;;7.63;7.53;;;;;;;;;;5106241;28;20489;-74
2024/03/21 01:07:25;;;;;;;8.60;8.50;;;;;;;;;;5109555;28;20504;-72
2024/03/21 01:09:53;;;;;;;7.60;7.50;;;;;;;;;;5106593;28;20879;-74
2024/03/21 01:12:21;;;;;;;8.07;7.97;;;;;;;;;;5101390;28;20545;-72
2024/03/21 01:14:47;;;;;;;8.60;8.50;;;;;;;;;;5111034;28;20472;-72
2024/03/21 01:17:15;;;;;;;8.40;8.30;;;;;;;;;;5101252;28;21127;-73
2024/03/21 01:19:41;;;;;;;8.00;7.90;;;;;;;;;;5109080;28;20808;-72
2024/03/21 01:22:09;;;;;;;8.43;8.33;;;;;;;;;;5105687;28;20458;-72
2024/03/21 01:24:35;;;;;;;7.43;7.33;;;;;;;;;;5111223;28;20481;-73
2024/03/21 01:27:04;;;;;;;7.60;7.50;;;;;;;;;;5101061;28;20463;-72
2024/03/21 01:29:30;;;;;;;8.70;8.60;;;;;;;;;;5102741;28;20467;-72
2024/03/21 01:31:57;;;;;;;7.80;7.70;;;;;;;;;;5110962;28;20493;-72
2024/03/21 01:34:24;;;;;;;8.07;7.97;;;;;;;;;;5105361;28;20472;-73
2024/03/21 01:36:53;;;;;;;8.50;8.40;;;;;;;;;;5110529;28;20581;-72
2024/03/21 01:39:19;;;;;;;7.10;7.00;;;;;;;;;;5094272;28;20473;-73
2024/03/21 01:41:46;;;;;;;6.70;6.60;;;;;;;;;;5110793;28;20522;-72
2024/03/21 01:44:15;;;;;;;6.33;6.23;;;;;;;;;;5110797;28;20460;-72
2024/03/21 01:46:43;;;;;;;6.30;6.20;;;;;;;;;;5105174;28;20501;-72
2024/03/21 01:49:10;;;;;;;7.80;7.70;;;;;;;;;;5101812;28;21064;-73
2024/03/21 01:51:38;;;;;;;6.67;6.57;;;;;;;;;;5109892;28;20515;-72
2024/03/21 01:54:04;;;;;;;7.40;7.30;;;;;;;;;;5107390;28;20781;-72
2024/03/21 01:56:37;;;;;;;7.07;6.97;;;;;;;;;;5093897;28;20716;-72
2024/03/21 01:59:03;;;;;;;7.10;7.00;;;;;;;;;;5108080;28;21048;-72
2024/03/21 02:01:32;;;;;;;6.73;6.63;;;;;;;;;;5102724;28;20608;-73
2024/03/21 02:03:59;;;;;;;6.43;6.33;;;;;;;;;;5108511;28;20461;-72
2024/03/21 02:06:28;;;;;;;6.17;6.07;;;;;;;;;;5110045;28;20496;-72
2024/03/21 02:08:54;;;;;;;5.90;5.80;;;;;;;;;;5100664;28;20462;-72
2024/03/21 02:11:22;;;;;;;5.53;5.43;;;;;;;;;;5110168;28;20508;-72
2024/03/21 02:13:49;;;;;;;5.77;5.67;;;;;;;;;;5109860;28;20463;-73
2024/03/21 02:16:16;;;;;;;5.40;5.30;;;;;;;;;;5097437;28;20524;-73
2024/03/21 02:18:43;;;;;;;5.60;5.50;;;;;;;;;;5105720;28;20549;-74
2024/03/21 02:23:53;;;;;;;5.37;5.27;;;;;;;;;;5105108;28;21453;-72
2024/03/21 02:26:20;;;;;;;5.80;5.70;;;;;;;;;;5109748;28;20482;-73
2024/03/21 02:28:50;;;;;;;6.03;5.93;;;;;;;;;;5105691;28;20457;-72
2024/03/21 02:31:19;;;;;;;5.67;5.57;;;;;;;;;;5102338;28;20527;-72
2024/03/21 02:33:45;;;;;;;6.03;5.93;;;;;;;;;;5092595;28;20553;-73
2024/03/21 02:36:12;;;;;;;6.10;6.00;;;;;;;;;;5101233;28;20474;-72
2024/03/21 02:38:38;;;;;;;5.53;5.43;;;;;;;;;;5110021;28;20476;-72
2024/03/21 02:41:06;;;;;;;5.40;5.30;;;;;;;;;;5097889;28;20494;-72
2024/03/21 02:43:32;;;;;;;5.80;5.70;;;;;;;;;;5104450;28;20527;-73
2024/03/21 02:46:00;;;;;;;5.80;5.70;;;;;;;;;;5109234;28;20496;-72
2024/03/21 02:48:27;;;;;;;5.53;5.43;;;;;;;;;;5095548;28;20473;-72
2024/03/21 02:50:54;;;;;;;6.47;6.37;;;;;;;;;;5100174;28;20555;-72
2024/03/21 02:53:20;;;;;;;6.27;6.17;;;;;;;;;;5107259;28;20455;-72
2024/03/21 02:55:47;;;;;;;5.43;5.33;;;;;;;;;;5103465;28;20456;-73
2024/03/21 02:58:15;;;;;;;6.13;6.03;;;;;;;;;;5094643;28;20465;-72
2024/03/21 03:00:42;;;;;;;5.77;5.67;;;;;;;;;;5097400;28;20468;-72
2024/03/21 03:03:08;;;;;;;5.83;5.73;;;;;;;;;;5104121;28;20496;-71
2024/03/21 03:05:40;;;;;;;5.27;5.17;;;;;;;;;;5104390;28;20629;-72
2024/03/21 03:08:07;;;;;;;5.67;5.57;;;;;;;;;;5100453;28;20458;-72
2024/03/21 03:10:34;;;;;;;5.83;5.73;;;;;;;;;;5105820;28;20510;-72
2024/03/21 03:13:00;;;;;;;5.20;5.10;;;;;;;;;;5109070;28;20452;-73
2024/03/21 03:15:29;;;;;;;5.53;5.43;;;;;;;;;;5106984;28;20557;-73
2024/03/21 03:17:55;;;;;;;4.40;4.40;;;;;;;;;;5099074;28;20496;-72
2024/03/21 03:20:22;;;;;;;4.40;4.40;;;;;;;;;;5093509;28;20490;-72
2024/03/21 03:22:49;;;;;;;4.07;4.07;;;;;;;;;;5108897;28;20454;-72
2024/03/21 03:25:18;;;;;;;4.13;4.13;;;;;;;;;;5108477;28;20512;-72
2024/03/21 03:27:44;;;;;;;3.90;3.90;;;;;;;;;;5107095;28;20466;-72
2024/03/21 03:30:11;;;;;;;3.63;3.63;;;;;;;;;;5103213;28;20777;-71
2024/03/21 03:32:47;;;;;;;3.20;3.20;;;;;;;;;;5108945;28;20472;-73
2024/03/21 03:37:59;;;;;;;4.13;4.13;;;;;;;;;;5091819;28;20901;-72
2024/03/21 03:40:26;;;;;;;4.40;4.40;;;;;;;;;;5106171;28;20450;-73
2024/03/21 03:42:53;;;;;;;3.87;3.87;;;;;;;;;;5108850;28;20861;-73
2024/03/21 03:45:21;;;;;;;3.93;3.93;;;;;;;;;;5103093;28;20490;-72
2024/03/21 03:47:50;;;;;;;3.90;3.90;;;;;;;;;;5109031;28;20541;-72
2024/03/21 03:50:18;;;;;;;3.60;3.60;;;;;;;;;;5099231;28;20563;-72
2024/03/21 03:52:45;;;;;;;4.37;4.37;;;;;;;;;;5106444;28;20829;-73
2024/03/21 03:55:11;;;;;;;5.57;5.47;;;;;;;;;;5107307;28;20536;-72
2024/03/21 03:57:38;;;;;;;4.43;4.43;;;;;;;;;;5095002;28;20484;-72
2024/03/21 04:00:05;;;;;;;4.70;4.70;;;;;;;;;;5107689;28;20464;-72
2024/03/21 04:02:34;;;;;;;4.40;4.40;;;;;;;;;;5099007;28;20528;-72
2024/03/21 04:05:03;;;;;;;5.20;5.10;;;;;;;;;;5096534;28;20868;-72
2024/03/21 04:07:31;;;;;;;3.87;3.87;;;;;;;;;;5098272;28;20464;-72
2024/03/21 04:09:57;;;;;;;4.60;4.60;;;;;;;;;;5095395;28;20454;-72
2024/03/21 04:12:25;;;;;;;4.20;4.20;;;;;;;;;;5105779;28;20457;-72
2024/03/21 04:14:52;;;;;;;4.43;4.43;;;;;;;;;;5108329;28;20469;-72
2024/03/21 04:17:20;;;;;;;5.20;5.10;;;;;;;;;;5108104;28;20468;-73
2024/03/21 04:19:46;;;;;;;5.03;5.03;;;;;;;;;;5097394;28;20485;-72
2024/03/21 04:22:14;;;;;;;5.27;5.20;;;;;;;;;;5104964;28;20773;-74
2024/03/21 04:24:41;;;;;;;4.67;4.67;;;;;;;;;;5104066;28;20905;-72
2024/03/21 04:27:09;;;;;;;5.27;5.17;;;;;;;;;;5099232;28;20542;-72
2024/03/21 04:29:36;;;;;;;5.70;5.60;;;;;;;;;;5108191;28;20471;-72
2024/03/21 04:32:03;;;;;;;5.87;5.77;;;;;;;;;;5103629;28;20514;-73
2024/03/21 04:34:29;;;;;;;5.20;5.13;;;;;;;;;;5092255;28;21238;-72
2024/03/21 04:36:56;;;;;;;4.33;4.33;;;;;;;;;;5106331;28;20873;-73
2024/03/21 04:39:24;;;;;;;4.30;4.30;;;;;;;;;;5108746;28;20606;-73
2024/03/21 04:41:52;;;;;;;4.03;4.03;;;;;;;;;;5108038;28;20481;-73
2024/03/21 04:44:20;;;;;;;3.83;3.83;;;;;;;;;;5093520;28;20498;-73
2024/03/21 04:46:47;;;;;;;4.43;4.43;;;;;;;;;;5104554;28;20520;-72
2024/03/21 04:49:15;;;;;;;4.20;4.20;;;;;;;;;;5101304;28;20578;-72
2024/03/21 04:51:41;;;;;;;3.97;3.97;;;;;;;;;;5092686;28;20459;-72
2024/03/21 04:54:08;;;;;;;4.43;4.43;;;;;;;;;;5107699;28;20490;-72
2024/03/21 04:56:35;;;;;;;4.30;4.30;;;;;;;;;;5098509;28;21068;-73
2024/03/21 04:59:03;;;;;;;5.07;5.00;;;;;;;;;;5105694;28;20475;-73
2024/03/21 05:01:30;;;;;;;5.00;5.00;;;;;;;;;;5104093;28;20463;-71
2024/03/21 05:03:57;;;;;;;4.90;4.90;;;;;;;;;;5104382;28;20473;-72
2024/03/21 05:06:24;;;;;;;4.70;4.70;;;;;;;;;;5101889;28;20877;-73
2024/03/21 05:08:51;;;;;;;4.70;4.70;;;;;;;;;;5098522;28;20477;-72
2024/03/21 05:11:17;;;;;;;5.43;5.33;;;;;;;;;;5095626;28;20462;-71
2024/03/21 05:13:49;;;;;;;5.50;5.40;;;;;;;;;;5108862;28;20454;-72
2024/03/21 05:16:16;;;;;;;5.53;5.43;;;;;;;;;;5109939;28;20460;-73
2024/03/21 05:18:43;;;;;;;6.10;6.00;;;;;;;;;;5110234;28;20465;-72
2024/03/21 05:21:09;;;;;;;5.77;5.67;;;;;;;;;;5099210;28;20462;-71
2024/03/21 05:23:37;;;;;;;6.20;6.10;;;;;;;;;;5104288;28;20466;-72
2024/03/21 05:26:03;;;;;;;6.40;6.30;;;;;;;;;;5106733;28;20488;-73
2024/03/21 05:28:30;;;;;;;6.53;6.43;;;;;;;;;;5108029;28;20469;-71
2024/03/21 05:30:58;;;;;;;6.57;6.47;;;;;;;;;;5095736;28;20466;-72
2024/03/21 05:33:25;;;;;;;5.80;5.70;;;;;;;;;;5106260;28;20497;-71
2024/03/21 05:35:51;;;;;;;6.60;6.50;;;;;;;;;;5109344;28;20946;-71
2024/03/21 05:38:19;;;;;;;6.17;6.07;;;;;;;;;;5103766;28;20469;-71
2024/03/21 05:40:45;;;;;;;6.47;6.37;;;;;;;;;;5099649;28;20901;-71
2024/03/21 05:43:12;;;;;;;6.93;6.83;;;;;;;;;;5104332;28;20458;-70
2024/03/21 05:45:38;;;;;;;6.67;6.57;;;;;;;;;;5105048;28;20554;-71
2024/03/21 05:48:07;;;;;;;6.23;6.13;;;;;;;;;;5099328;28;20510;-71
2024/03/21 05:50:34;;;;;;;5.80;5.70;;;;;;;;;;5090069;28;20749;-70
2024/03/21 05:53:01;;;;;;;4.87;4.87;;;;;;;;;;5105856;28;20767;-71
2024/03/21 05:55:27;;;;;;;4.90;4.90;;;;;;;;;;5109356;28;20449;-71
2024/03/21 05:57:55;;;;;;;4.43;4.43;;;;;;;;;;5101886;28;21044;-71
2024/03/21 06:00:21;;;;;;;4.63;4.63;;;;;;;;;;5109044;28;20471;-71
2024/03/21 06:02:49;;;;;;;4.70;4.70;;;;;;;;;;5108821;28;20912;-72
2024/03/21 06:05:17;;;;;;;4.83;4.83;;;;;;;;;;5100293;28;20492;-71
2024/03/21 06:07:44;;;;;;;4.60;4.60;;;;;;;;;;5097131;28;20490;-71
2024/03/21 06:10:10;;;;;;;4.80;4.80;;;;;;;;;;5098313;28;20891;-71
2024/03/21 06:12:37;;;;;;;4.70;4.70;;;;;;;;;;5108622;28;20896;-71
2024/03/21 06:15:04;;;;;;;4.60;4.60;;;;;;;;;;5102712;28;20475;-70
2024/03/21 06:17:31;;;;;;;4.80;4.80;;;;;;;;;;5108771;28;20479;-71
2024/03/21 06:19:57;;;;;;;4.83;4.83;;;;;;;;;;5099193;28;20617;-71
2024/03/21 06:22:26;;;;;;;4.90;4.90;;;;;;;;;;5103328;28;20516;-72
2024/03/21 06:24:52;;;;;;;5.30;5.20;;;;;;;;;;5095225;28;20460;-70
2024/03/21 06:27:19;;;;;;;4.87;4.87;;;;;;;;;;5098150;28;20576;-71
2024/03/21 06:29:45;;;;;;;4.70;4.70;;;;;;;;;;5099549;28;20930;-71
2024/03/21 06:32:13;;;;;;;4.37;4.37;;;;;;;;;;5099828;28;20581;-71
2024/03/21 06:34:43;;;;;;;4.70;4.70;;;;;;;;;;5108279;28;20766;-70
2024/03/21 06:37:13;;;;;;;4.30;4.30;;;;;;;;;;5099797;28;20887;-70
2024/03/21 06:39:40;;;;;;;4.77;4.77;;;;;;;;;;5098363;28;20470;-71
2024/03/21 06:42:08;;;;;;;4.43;4.43;;;;;;;;;;5099111;28;20495;-71
2024/03/21 06:44:34;;;;;;;4.33;4.33;;;;;;;;;;5108044;28;20465;-72
2024/03/21 06:47:04;;;;;;;4.80;4.80;;;;;;;;;;5107853;28;20479;-71
2024/03/21 06:49:30;;;;;;;4.50;4.50;;;;;;;;;;5107948;28;20451;-71
2024/03/21 06:51:57;;;;;;;3.93;3.93;;;;;;;;;;5103345;28;20558;-71
2024/03/21 06:54:23;;;;;;;4.23;4.23;;;;;;;;;;5103670;28;20560;-71
2024/03/21 06:56:52;;;;;;;4.00;4.00;;;;;;;;;;5100450;28;20727;-71
2024/03/21 06:59:18;;;;;;;4.10;4.10;;;;;;;;;;5101044;28;20467;-72
2024/03/21 07:01:49;;;;;;;3.90;3.90;;;;;;;;;;5097553;28;20518;-72
2024/03/21 07:04:15;;;;;;;3.70;3.70;;;;;;;;;;5103772;28;20486;-72
2024/03/21 07:06:42;;;;;;;4.23;4.23;;;;;;;;;;5101082;28;20490;-71
2024/03/21 07:09:08;;;;;;;3.80;3.80;;;;;;;;;;5106228;28;20462;-71
2024/03/21 07:11:35;;;;;;;3.10;3.10;;;;;;;;;;5107587;28;20456;-72
2024/03/21 07:14:05;;;;;;;3.37;3.37;;;;;;;;;;5097758;28;20468;-70
2024/03/21 07:16:32;;;;;;;3.13;3.13;;;;;;;;;;5107392;28;20944;-72
2024/03/21 07:18:58;;;;;;;3.20;3.20;;;;;;;;;;5107876;28;20465;-72
2024/03/21 07:21:25;;;;;;;3.60;3.60;;;;;;;;;;5107496;28;20507;-72
2024/03/21 07:23:52;;;;;;;3.23;3.23;;;;;;;;;;5097905;28;20460;-72
2024/03/21 07:26:19;;;;;;;3.80;3.80;;;;;;;;;;5102016;28;20576;-73
2024/03/21 07:28:45;;;;;;;3.67;3.67;;;;;;;;;;5097499;28;20558;-72
2024/03/21 07:31:13;;;;;;;4.07;4.07;;;;;;;;;;5107353;28;20464;-72
2024/03/21 07:33:39;;;;;;;4.00;4.00;;;;;;;;;;5107383;28;20450;-72
2024/03/21 07:36:07;;;;;;;4.23;4.23;;;;;;;;;;5105333;28;20506;-72
2024/03/21 07:38:33;;;;;;;4.77;4.77;;;;;;;;;;5096232;28;20453;-73
2024/03/21 07:41:01;;;;;;;4.47;4.47;;;;;;;;;;5100125;28;20490;-73
2024/03/21 07:43:27;;;;;;;4.90;4.90;;;;;;;;;;5101620;28;20469;-73
2024/03/21 07:45:54;;;;;;;4.77;4.77;;;;;;;;;;5099378;28;20459;-73
2024/03/21 07:48:23;;;;;;;4.57;4.57;;;;;;;;;;5095466;27;20473;-72
2024/03/21 07:50:50;;;;;;;4.93;4.93;;;;;;;;;;5100991;28;20476;-74
2024/03/21 07:53:16;;;;;;;5.57;5.47;;;;;;;;;;5102818;28;20917;-73
2024/03/21 07:55:44;;;;;;;6.03;5.93;;;;;;;;;;5105909;28;20467;-73
2024/03/21 07:58:11;;;;;;;6.30;6.20;;;;;;;;;;5102661;28;20535;-73
2024/03/21 08:00:38;;;;;;;6.57;6.47;;;;;;;;;;5105041;28;20470;-73
2024/03/21 08:03:04;;;;;;;6.67;6.57;;;;;;;;;;5096253;28;20485;-72
2024/03/21 08:05:33;;;;;;;6.73;6.63;;;;;;;;;;5104492;28;20595;-72
2024/03/21 08:07:59;;;;;;;8.00;7.90;;;;;;;;;;5096248;28;20490;-73
2024/03/21 08:10:26;;;;;;;8.10;8.00;;;;;;;;;;5103912;28;20554;-72
2024/03/21 08:12:52;;;;;;;8.90;8.70;;;;;;;;;;5103013;28;20463;-75
2024/03/21 08:15:19;;;;;;;9.30;9.10;;;;;;;;;;5098437;28;20467;-73
2024/03/21 08:17:46;;;;;;;9.57;9.37;;;;;;;;;;5096513;28;20568;-75
2024/03/21 08:20:13;;;;;;;9.83;9.63;;;;;;;;;;5095838;28;20465;-73
2024/03/21 08:22:40;;;;;;;10.53;10.33;;;;;;;;;;5102148;28;20469;-72
2024/03/21 08:25:08;;;;;;;10.40;10.20;;;;;;;;;;5095581;28;20469;-73
2024/03/21 08:27:35;;;;;;;11.20;10.90;;;;;;;;;;5107219;28;20492;-73
2024/03/21 08:30:03;;;;;;;11.00;10.70;;;;;;;;;;5094104;28;20469;-73
2024/03/21 08:32:29;;;;;;;11.43;11.13;;;;;;;;;;5103673;28;20522;-72
2024/03/21 08:34:56;;;;;;;11.90;11.60;;;;;;;;;;5100003;28;20456;-75
2024/03/21 08:37:22;;;;;;;11.53;11.23;;;;;;;;;;5098578;28;20481;-74
2024/03/21 08:39:51;;;;;;;11.70;11.40;;;;;;;;;;5104817;28;20788;-73
2024/03/21 08:42:17;;;;;;;12.27;11.87;;;;;;;;;;5099312;28;20478;-74
2024/03/21 08:44:47;;;;;;;12.30;11.93;;;;;;;;;;5109599;28;20494;-72
2024/03/21 08:47:13;;;;;;;12.63;12.23;;;;;;;;;;5101738;28;20485;-75
2024/03/21 08:49:40;;;;;;;13.40;13.00;;;;;;;;;;5110737;28;20530;-73
2024/03/21 08:52:06;;;;;;;13.17;12.77;;;;;;;;;;5110397;28;20455;-73
2024/03/21 08:54:34;;;;;;;13.17;12.77;;;;;;;;;;5106110;28;20460;-73
2024/03/21 08:57:04;;;;;;;13.10;12.70;;;;;;;;;;5109225;28;20459;-73
2024/03/21 08:59:32;;;;;;;13.10;12.70;;;;;;;;;;5100094;28;20502;-73
2024/03/21 09:02:00;;;;;;;13.57;13.13;;;;;;;;;;5098868;28;20471;-74
2024/03/21 09:04:27;;;;;;;13.10;12.70;;;;;;;;;;5110216;28;20577;-73
2024/03/21 09:06:56;;;;;;;13.10;12.70;;;;;;;;;;5106167;28;20494;-74
2024/03/21 09:09:24;;;;;;;13.33;12.93;;;;;;;;;;5108429;28;20455;-74
2024/03/21 09:11:52;;;;;;;13.20;12.80;;;;;;;;;;5106307;28;20472;-73
2024/03/21 09:14:21;;;;;;;13.43;13.03;;;;;;;;;;5116611;27;20536;-73
2024/03/21 09:16:47;;;;;;;12.80;12.40;;;;;;;;;;5104422;28;20552;-73
2024/03/21 09:19:14;;;;;;;13.27;12.87;;;;;;;;;;5095178;28;20620;-73
2024/03/21 09:21:41;;;;;;;13.40;13.00;;;;;;;;;;5109883;28;20529;-73
2024/03/21 09:24:08;;;;;;;13.43;13.03;;;;;;;;;;5106059;28;20454;-73
2024/03/21 09:26:34;;;;;;;13.30;12.90;;;;;;;;;;5105723;28;20491;-74
2024/03/21 09:29:01;;;;;;;13.40;13.00;;;;;;;;;;5100440;28;20904;-73
2024/03/21 09:31:30;;;;;;;13.67;13.27;;;;;;;;;;5099714;28;20557;-75
2024/03/21 09:33:59;;;;;;;14.03;13.53;;;;;;;;;;5106317;28;20460;-75
2024/03/21 09:36:25;;;;;;;13.90;13.40;;;;;;;;;;5109868;28;20454;-74
2024/03/21 09:39:03;;;;;;;13.40;13.00;;;;;;;;;;5101675;28;20461;-76
2024/03/21 09:41:32;;;;;;;14.03;13.53;;;;;;;;;;5096848;28;20457;-75
2024/03/21 09:44:01;;;;;;;14.10;13.60;;;;;;;;;;5107699;28;20467;-74
2024/03/21 09:46:30;;;;;;;14.63;14.13;;;;;;;;;;5108940;28;20459;-74
2024/03/21 09:48:58;;;;;;;14.80;14.30;;;;;;;;;;5100554;28;20456;-74
2024/03/21 09:51:26;;;;;;;14.73;14.23;;;;;;;;;;5087433;28;20476;-74
2024/03/21 09:53:59;;;;;;;14.40;13.90;;;;;;;;;;5108412;28;20462;-74
2024/03/21 09:56:29;;;;;;;14.80;14.30;;;;;;;;;;5090585;28;21021;-73
2024/03/21 09:58:59;;;;;;;14.60;14.10;;;;;;;;;;5104592;28;20468;-74
2024/03/21 10:01:25;;;;;;;14.50;14.00;;;;;;;;;;5095866;28;20457;-74
2024/03/21 10:03:55;;;;;;;14.47;13.97;;;;;;;;;;5105006;28;21024;-76
2024/03/21 10:06:24;;;;;;;14.87;14.37;;;;;;;;;;5108874;28;20464;-73
2024/03/21 10:08:59;;;;;;;15.00;14.50;;;;;;;;;;5106770;28;20459;-75
2024/03/21 10:11:33;;;;;;;14.60;14.10;;;;;;;;;;5094444;28;20816;-74
2024/03/21 10:14:19;;;;;;;14.53;14.03;;;;;;;;;;5108913;28;20457;-74
2024/03/21 10:16:45;;;;;;;14.30;13.80;;;;;;;;;;5108641;28;20464;-74
2024/03/21 10:19:15;;;;;;;14.73;14.23;;;;;;;;;;5096971;28;20455;-77
2024/03/21 10:21:47;;;;;;;14.90;14.40;;;;;;;;;;5103976;28;20469;-74
2024/03/21 10:24:16;;;;;;;14.80;14.30;;;;;;;;;;5108757;28;20457;-76
2024/03/21 10:26:49;;;;;;;14.50;14.00;;;;;;;;;;5106067;28;21080;-74
2024/03/21 10:29:26;;;;;;;13.87;13.40;;;;;;;;;;5096852;28;20461;-75
2024/03/21 10:32:15;;;;;;;14.13;13.63;;;;;;;;;;5107648;28;20450;-74
2024/03/21 10:41:45;;;;;;;14.10;13.60;;;;;;;;;;5059323;28;20469;-74
2024/03/21 10:44:47;;;;;;;14.57;14.07;;;;;;;;;;5063051;28;21081;-75
2024/03/21 13:56:30;;;;;;;15.10;14.60;;;;;;;;;;4888588;29;20468;-77
2024/03/21 13:59:28;;;;;;;15.50;15.00;;;;;;;;;;4871529;29;20571;-80
2024/03/21 15:17:39;;;;;;;15.23;14.73;;;;;;;;;;4832004;29;20473;-74
2024/03/21 15:21:22;;;;;;;15.23;14.73;;;;;;;;;;4901142;29;21053;-74
2024/03/21 15:27:05;;;;;;;14.77;14.27;;;;;;;;;;4905290;29;20492;-74
2024/03/21 15:32:44;;;;;;;14.97;14.47;;;;;;;;;;4904584;29;20463;-74
2024/03/21 15:36:51;;;;;;;14.10;13.70;;;;;;;;;;4793133;29;20881;-75
2024/03/21 15:45:30;;;;;;;15.20;14.70;;;;;;;;;;4849705;29;20538;-74
2024/03/21 17:35:08;;;;;;;13.53;13.13;;;;;;;;;;4775907;29;20487;-77
2024/03/21 17:56:53;;;;;;;12.90;12.50;;;;;;;;;;4806357;29;20486;-78
2024/03/21 18:03:04;;;;;;;13.03;12.63;;;;;;;;;;4812049;29;20476;-75
2024/03/21 18:06:26;;;;;;;12.90;12.50;;;;;;;;;;4823547;29;20505;-78
2024/03/21 18:12:27;;;;;;;13.23;12.83;;;;;;;;;;4813614;29;20493;-73
2024/03/21 18:15:37;;;;;;;13.27;12.87;;;;;;;;;;4804523;29;20473;-74
2024/03/21 18:21:42;;;;;;;13.27;12.87;;;;;;;;;;4800378;29;20529;-74
2024/03/21 18:27:29;;;;;;;13.13;12.73;;;;;;;;;;4778382;29;20883;-78
2024/03/21 18:30:04;;;;;;;13.47;13.07;;;;;;;;;;4815942;29;20476;-74
2024/03/21 18:35:54;;;;;;;12.60;12.20;;;;;;;;;;4870696;29;20458;-73
2024/03/21 18:38:23;;;;;;;12.67;12.33;;;;;;;;;;4876212;29;20458;-73
2024/03/21 18:57:10;;;;;;;;;;;;;;;;;;;;;
2024/03/21 19:05:11;;;;;;;12.20;11.90;;;;;;;;;;4836635;29;20469;-74
2024/03/21 19:07:50;;;;;;;11.20;10.90;;;;;;;;;;4890308;29;20465;-75
2024/03/21 19:13:01;;;;;;;11.83;11.53;;;;;;;;;;4853694;29;20470;-74
2024/03/21 19:15:30;;;;;;;11.60;11.30;;;;;;;;;;4910230;29;20823;-74
2024/03/21 19:17:58;;;;;;;11.90;11.60;;;;;;;;;;4903746;29;20483;-74
2024/03/21 19:20:25;;;;;;;11.60;11.30;;;;;;;;;;4909504;29;20486;-76
2024/03/21 19:22:55;;;;;;;11.57;11.27;;;;;;;;;;4901903;29;20902;-77
2024/03/21 19:25:21;;;;;;;11.53;11.23;;;;;;;;;;4905581;29;20466;-74
2024/03/21 19:27:48;;;;;;;10.73;10.53;;;;;;;;;;4909310;29;20487;-76
2024/03/21 19:30:15;;;;;;;11.47;11.17;;;;;;;;;;4910008;29;20479;-75
2024/03/21 19:32:43;;;;;;;10.97;10.67;;;;;;;;;;4902016;29;20517;-73
2024/03/21 19:35:10;;;;;;;10.87;10.60;;;;;;;;;;4910139;29;20462;-74
2024/03/21 19:37:37;;;;;;;11.27;10.97;;;;;;;;;;4909828;29;20483;-74
2024/03/21 19:40:05;;;;;;;10.70;10.50;;;;;;;;;;4893025;29;20845;-74
2024/03/21 19:42:32;;;;;;;10.47;10.27;;;;;;;;;;4906970;29;20488;-74
2024/03/21 19:45:01;;;;;;;10.97;10.73;;;;;;;;;;4908836;29;20506;-78
2024/03/21 19:47:28;;;;;;;11.67;11.37;;;;;;;;;;4910451;29;20561;-74
2024/03/21 19:49:55;;;;;;;11.30;11.00;;;;;;;;;;4900107;29;20505;-77
2024/03/21 19:52:23;;;;;;;11.27;10.97;;;;;;;;;;4910179;29;21185;-75
2024/03/21 19:54:49;;;;;;;11.70;11.40;;;;;;;;;;4906140;29;20476;-74
2024/03/21 19:57:16;;;;;;;11.27;10.97;;;;;;;;;;4906845;29;21277;-76
2024/03/21 19:59:42;;;;;;;11.00;10.70;;;;;;;;;;4899421;29;20500;-77
2024/03/21 20:02:09;;;;;;;10.73;10.53;;;;;;;;;;4907297;29;20511;-75
2024/03/21 20:04:36;;;;;;;10.83;10.63;;;;;;;;;;4906548;29;20582;-74
2024/03/21 20:07:07;;;;;;;11.40;11.10;;;;;;;;;;4907617;29;20467;-74
2024/03/21 20:09:33;;;;;;;11.30;11.00;;;;;;;;;;4901499;29;20498;-75
2024/03/21 20:12:01;;;;;;;10.43;10.23;;;;;;;;;;4901327;29;20477;-73
2024/03/21 20:14:27;;;;;;;10.40;10.20;;;;;;;;;;4907165;29;20504;-74
2024/03/21 20:16:55;;;;;;;11.00;10.70;;;;;;;;;;4909955;29;20479;-73
2024/03/21 20:19:21;;;;;;;11.10;10.80;;;;;;;;;;4905280;29;21147;-76
2024/03/21 20:21:49;;;;;;;10.60;10.40;;;;;;;;;;4906745;29;20500;-74
2024/03/21 20:24:17;;;;;;;11.00;10.70;;;;;;;;;;4902441;29;20533;-74
2024/03/21 20:26:44;;;;;;;11.10;10.80;;;;;;;;;;4901843;29;21005;-74
2024/03/21 20:29:11;;;;;;;10.63;10.43;;;;;;;;;;4904937;29;20497;-78
2024/03/21 20:31:38;;;;;;;11.40;11.10;;;;;;;;;;4907419;29;21254;-74
2024/03/21 20:34:04;;;;;;;11.07;10.77;;;;;;;;;;4904809;29;20468;-74
2024/03/21 20:36:32;;;;;;;11.60;11.30;;;;;;;;;;4902020;29;20507;-74
2024/03/21 20:38:58;;;;;;;11.60;11.30;;;;;;;;;;4906383;29;20716;-74
2024/03/21 20:41:27;;;;;;;12.07;11.77;;;;;;;;;;4909514;29;20481;-76
2024/03/21 20:43:53;;;;;;;12.40;12.10;;;;;;;;;;4911985;29;20842;-73
2024/03/21 20:46:20;;;;;;;12.37;12.07;;;;;;;;;;4901621;29;20844;-74
2024/03/21 20:48:46;;;;;;;11.70;11.40;;;;;;;;;;4906813;29;20500;-77
2024/03/21 20:51:14;;;;;;;11.57;11.27;;;;;;;;;;4908699;29;20990;-76
2024/03/21 20:53:42;;;;;;;11.47;11.17;;;;;;;;;;4912913;29;20469;-75
2024/03/21 20:56:10;;;;;;;11.97;11.67;;;;;;;;;;4907529;29;20592;-75
2024/03/21 20:58:38;;;;;;;12.23;11.93;;;;;;;;;;4902557;29;20493;-74
2024/03/21 21:01:06;;;;;;;12.40;12.10;;;;;;;;;;4902659;29;20476;-76
2024/03/21 21:03:33;;;;;;;11.63;11.33;;;;;;;;;;4905888;29;20493;-74
2024/03/21 21:06:00;;;;;;;11.07;10.77;;;;;;;;;;4907849;29;20523;-76
2024/03/21 21:08:26;;;;;;;10.77;10.53;;;;;;;;;;4904071;29;20504;-74
2024/03/21 21:10:54;;;;;;;10.83;10.57;;;;;;;;;;4901269;29;20582;-76
2024/03/21 21:13:20;;;;;;;10.97;10.70;;;;;;;;;;4905071;29;20484;-74
2024/03/21 21:15:51;;;;;;;10.53;10.33;;;;;;;;;;4907101;29;20478;-74
2024/03/21 21:18:18;;;;;;;10.50;10.30;;;;;;;;;;4903843;29;20474;-75
2024/03/21 21:23:45;;;;;;;10.03;9.83;;;;;;;;;;4878775;29;20976;-74
2024/03/21 21:26:11;;;;;;;9.77;9.57;;;;;;;;;;4860721;29;20489;-75
2024/03/21 21:28:39;;;;;;;9.97;9.77;;;;;;;;;;4877683;29;20501;-75
2024/03/21 21:47:04;;;;;;;9.77;9.57;;;;;;;;;;4823461;29;20503;-76
2024/03/21 21:49:57;;;;;;;9.87;9.67;;;;;;;;;;4903388;29;21918;-74
2024/03/21 21:52:50;;;;;;;;;;;;;;;;;;;;;
2024/03/21 21:55:33;;;;;;;9.63;9.43;;;;;;;;;;4902783;29;20496;-78
2024/03/21 22:01:09;;;;;;;9.87;9.67;;;;;;;;;;4863916;29;20463;-75
2024/03/21 22:06:56;;;;;;;9.80;9.60;;;;;;;;;;4891932;29;20466;-74
2024/03/21 22:09:25;;;;;;;9.50;9.30;;;;;;;;;;4897777;29;20488;-74
2024/03/21 22:11:52;;;;;;;9.33;9.13;;;;;;;;;;4897430;29;20470;-73
2024/03/21 22:14:21;;;;;;;9.27;9.07;;;;;;;;;;4902439;29;20486;-74
2024/03/21 22:16:50;;;;;;;9.33;9.13;;;;;;;;;;4905148;29;20472;-77
2024/03/21 22:19:17;;;;;;;9.40;9.20;;;;;;;;;;4903866;29;20469;-75
2024/03/21 22:21:46;;;;;;;8.80;8.70;;;;;;;;;;4900463;29;20490;-74
2024/03/21 22:24:12;;;;;;;9.00;8.80;;;;;;;;;;4904228;29;20463;-73
2024/03/21 22:26:41;;;;;;;9.33;9.13;;;;;;;;;;4905867;29;20464;-74
2024/03/21 22:29:08;;;;;;;8.60;8.50;;;;;;;;;;4905445;29;20482;-75
2024/03/21 22:31:36;;;;;;;9.27;9.07;;;;;;;;;;4905156;29;20518;-74
2024/03/21 22:34:03;;;;;;;8.60;8.50;;;;;;;;;;4902753;29;20578;-75
2024/03/21 22:36:30;;;;;;;8.93;8.77;;;;;;;;;;4903203;29;20483;-73
2024/03/21 22:39:02;;;;;;;9.23;9.03;;;;;;;;;;4903856;29;20553;-74
2024/03/21 22:41:39;;;;;;;9.17;8.97;;;;;;;;;;4903191;29;20894;-77
2024/03/21 22:44:05;;;;;;;9.13;8.93;;;;;;;;;;4903253;29;21087;-74
2024/03/21 22:46:33;;;;;;;9.20;9.00;;;;;;;;;;4904544;29;20481;-75
2024/03/21 22:49:01;;;;;;;8.90;8.77;;;;;;;;;;4902375;29;20593;-74